Essington, United Kingdom
Current Conditions -  °F | °C
As of 3:20 AM on Tuesday 23 Dec 2014 (Local Time) from EGBB Reporting Station
Overcast Overcast  
Wind Chill: 52°   Ceiling: 2000
Heat Index: 52°   Visibility: 6mi
Dew Point: 45°   Wind: 15mph
Humidity: 76%   Direction: 240°WSW
Pressure: 29.94"   Gusts: NA
Location:  52.63°N, 2.06°W
Report Text: EGBB 230320Z AUTO 24013KT 210V280 9999 BKN020/// OVC026/// 11/07 Q1014
Loading
Personal Weather Stations






























Interactive Weather Map New forecast layout! Learn more

10-Day Weather Forecast

Advertisements
Track Severe Weather on mobile